createdAt,value
2018-04-02T00:02:07.589Z,4.60
2018-04-02T00:04:35.135Z,4.50
2018-04-02T00:07:02.660Z,4.50
2018-04-02T00:09:30.209Z,4.50
2018-04-02T00:11:57.759Z,4.40
2018-04-02T00:14:25.287Z,4.40
2018-04-02T00:16:52.824Z,4.40
2018-04-02T00:19:20.353Z,4.40
2018-04-02T00:21:47.891Z,4.40
2018-04-02T00:24:16.173Z,4.40
2018-04-02T00:26:43.714Z,4.40
2018-04-02T00:29:12.005Z,4.40
2018-04-02T00:31:40.312Z,4.40
2018-04-02T00:34:08.509Z,4.40
2018-04-02T00:36:35.446Z,4.40
2018-04-02T00:39:02.982Z,4.40
2018-04-02T00:41:30.528Z,4.40
2018-04-02T00:43:58.810Z,4.40
2018-04-02T00:46:27.117Z,4.40
2018-04-02T00:48:54.639Z,4.40
2018-04-02T00:51:22.946Z,4.40
2018-04-02T00:53:50.470Z,4.40
2018-04-02T00:56:18.078Z,4.30
2018-04-02T00:58:45.598Z,4.40
2018-04-02T01:01:13.143Z,4.30
2018-04-02T01:03:40.669Z,4.40
2018-04-02T01:06:08.225Z,4.40
2018-04-02T01:08:35.750Z,4.30
2018-04-02T01:11:04.033Z,4.40
2018-04-02T01:13:32.336Z,4.40
2018-04-02T01:15:59.858Z,4.30
2018-04-02T01:18:27.403Z,4.30
2018-04-02T01:20:54.926Z,4.30
2018-04-02T01:23:22.466Z,4.40
2018-04-02T01:25:49.992Z,4.40
2018-04-02T01:28:17.548Z,4.40
2018-04-02T01:30:45.071Z,4.40
2018-04-02T01:33:12.634Z,4.40
2018-04-02T01:35:40.161Z,4.50
2018-04-02T01:38:08.475Z,4.40
2018-04-02T01:40:35.993Z,4.50
2018-04-02T01:43:04.304Z,4.40
2018-04-02T01:45:31.827Z,4.40
2018-04-02T01:48:00.130Z,4.40
2018-04-02T01:50:27.652Z,4.40
2018-04-02T01:52:55.966Z,4.40
2018-04-02T01:55:23.500Z,4.40
2018-04-02T01:57:51.018Z,4.50
2018-04-02T02:00:18.558Z,4.50
2018-04-02T02:02:46.087Z,4.50
2018-04-02T02:05:14.405Z,4.50
2018-04-02T02:07:41.921Z,4.40
2018-04-02T02:10:09.462Z,4.50
2018-04-02T02:12:36.992Z,4.50
2018-04-02T02:15:04.538Z,4.40
2018-04-02T02:17:32.062Z,4.50
2018-04-02T02:19:59.606Z,4.40
2018-04-02T02:22:27.130Z,4.40
2018-04-02T02:24:54.676Z,4.40
2018-04-02T02:27:22.195Z,4.50
2018-04-02T02:29:49.734Z,4.50
2018-04-02T02:32:17.256Z,4.40
2018-04-02T02:34:45.667Z,4.40
2018-04-02T02:37:13.196Z,4.40
2018-04-02T02:39:41.512Z,4.40
2018-04-02T02:42:09.040Z,4.30
2018-04-02T02:44:36.600Z,4.40
2018-04-02T02:47:04.122Z,4.40
2018-04-02T02:49:31.647Z,4.30
2018-04-02T02:51:59.191Z,4.30
2018-04-02T02:54:26.714Z,4.30
2018-04-02T02:56:54.260Z,4.30
2018-04-02T02:59:21.889Z,4.20
2018-04-02T03:01:49.425Z,4.10
2018-04-02T03:04:17.710Z,4.00
2018-04-02T03:06:45.253Z,4.00
2018-04-02T03:09:13.543Z,3.80
2018-04-02T03:11:41.091Z,3.80
2018-04-02T03:14:09.383Z,3.80
2018-04-02T03:16:37.691Z,3.70
2018-04-02T03:19:05.214Z,3.70
2018-04-02T03:21:33.524Z,3.50
2018-04-02T03:24:01.051Z,3.60
2018-04-02T03:26:29.359Z,3.50
2018-04-02T03:28:56.897Z,3.40
2018-04-02T03:31:25.210Z,3.30
2018-04-02T03:33:52.729Z,3.30
2018-04-02T03:36:21.048Z,3.20
2018-04-02T03:38:48.586Z,3.20
2018-04-02T03:41:16.166Z,3.10
2018-04-02T03:43:43.708Z,3.00
2018-04-02T03:46:11.229Z,2.90
2018-04-02T03:48:38.769Z,2.80
2018-04-02T03:51:06.300Z,2.70
2018-04-02T03:53:33.872Z,2.70
2018-04-02T03:56:01.404Z,2.70
2018-04-02T03:58:28.949Z,2.60
2018-04-02T04:00:57.245Z,2.50
2018-04-02T04:03:25.558Z,2.40
2018-04-02T04:05:53.134Z,2.40
2018-04-02T04:08:20.674Z,2.40
2018-04-02T04:10:48.199Z,2.30
2018-04-02T04:13:16.518Z,2.20
2018-04-02T04:15:44.072Z,2.20
2018-04-02T04:18:11.594Z,2.10
2018-04-02T04:20:39.901Z,2.10
2018-04-02T04:23:07.477Z,2.10
2018-04-02T04:25:35.034Z,2.10
2018-04-02T04:28:02.608Z,2.20
2018-04-02T04:30:30.153Z,2.20
2018-04-02T04:32:57.673Z,2.20
2018-04-02T04:35:25.981Z,2.10
2018-04-02T04:37:53.509Z,2.10
2018-04-02T04:40:21.080Z,2.00
2018-04-02T04:42:48.683Z,2.00
2018-04-02T04:45:16.228Z,2.00
2018-04-02T04:47:43.754Z,2.00
2018-04-02T04:50:11.307Z,2.00
2018-04-02T04:52:38.830Z,2.00
2018-04-02T04:55:06.374Z,2.10
2018-04-02T04:57:33.898Z,2.10
2018-04-02T05:00:02.213Z,2.10
2018-04-02T05:02:29.737Z,2.00
2018-04-02T05:04:57.354Z,2.00
2018-04-02T05:07:25.897Z,2.10
2018-04-02T05:09:54.181Z,2.00
2018-04-02T05:12:21.736Z,2.00
2018-04-02T05:14:50.029Z,2.10
2018-04-02T05:17:17.570Z,2.10
2018-04-02T05:19:45.893Z,2.10
2018-04-02T05:22:13.452Z,2.10
2018-04-02T05:24:40.976Z,2.10
2018-04-02T05:27:09.281Z,2.00
2018-04-02T05:29:36.851Z,2.00
2018-04-02T05:32:04.416Z,2.00
2018-04-02T05:34:31.937Z,2.10
2018-04-02T05:37:00.257Z,2.20
2018-04-02T05:39:27.793Z,2.20
2018-04-02T05:41:55.333Z,2.30
2018-04-02T05:44:22.857Z,2.40
2018-04-02T05:46:50.412Z,2.50
2018-04-02T05:49:17.938Z,2.70
2018-04-02T05:51:45.487Z,2.90
2018-04-02T05:54:13.783Z,3.50
2018-04-02T05:56:41.336Z,3.50
2018-04-02T05:59:08.862Z,3.80
2018-04-02T06:01:36.390Z,4.10
2018-04-02T06:04:03.932Z,4.40
2018-04-02T06:06:31.455Z,4.80
2018-04-02T06:08:59.765Z,5.80
2018-04-02T06:11:27.294Z,5.70
2018-04-02T06:13:55.607Z,6.60
2018-04-02T06:16:23.135Z,6.60
2018-04-02T06:18:50.742Z,6.70
2018-04-02T06:21:18.310Z,6.40
2018-04-02T06:23:45.853Z,6.00
2018-04-02T06:26:13.373Z,5.50
2018-04-02T06:28:40.986Z,5.20
2018-04-02T06:31:08.510Z,5.10
2018-04-02T06:33:36.825Z,5.80
2018-04-02T06:36:04.345Z,5.80
2018-04-02T06:38:31.887Z,6.20
2018-04-02T06:40:59.409Z,6.50
2018-04-02T06:43:26.922Z,6.60
2018-04-02T06:45:54.461Z,6.50
2018-04-02T06:48:21.997Z,6.40
2018-04-02T06:50:49.554Z,6.30
2018-04-02T06:53:17.070Z,6.20
2018-04-02T06:55:45.394Z,6.00
2018-04-02T06:58:12.913Z,6.00
2018-04-02T07:00:41.230Z,5.80
2018-04-02T07:03:08.757Z,5.80
2018-04-02T07:05:37.061Z,5.70
2018-04-02T07:08:04.608Z,5.70
2018-04-02T07:10:32.152Z,5.70
2018-04-02T07:13:00.437Z,5.60
2018-04-02T07:15:28.746Z,5.50
2018-04-02T07:17:56.264Z,5.50
2018-04-02T07:20:23.802Z,5.40
2018-04-02T07:22:51.322Z,5.40
2018-04-02T07:25:18.893Z,5.50
2018-04-02T07:27:46.412Z,5.60
2018-04-02T07:30:14.737Z,6.10
2018-04-02T07:32:42.295Z,6.10
2018-04-02T07:35:09.854Z,6.40
2018-04-02T07:37:37.414Z,6.50
2018-04-02T07:40:04.974Z,6.70
2018-04-02T07:42:32.519Z,7.30
2018-04-02T07:45:00.046Z,8.50
2018-04-02T07:47:27.591Z,9.30
2018-04-02T07:49:55.878Z,9.80
2018-04-02T07:52:23.421Z,9.80
2018-04-02T07:54:50.938Z,9.80
2018-04-02T07:57:18.477Z,9.70
2018-04-02T07:59:46.773Z,9.60
2018-04-02T08:02:14.350Z,9.50
2018-04-02T08:04:41.877Z,9.90
2018-04-02T08:07:10.182Z,11.70
2018-04-02T08:09:37.746Z,11.70
2018-04-02T08:12:05.289Z,12.90
2018-04-02T08:14:32.808Z,13.90
2018-04-02T08:17:00.346Z,15.10
2018-04-02T08:19:27.864Z,15.90
2018-04-02T08:21:56.187Z,16.70
2018-04-02T08:24:23.711Z,16.70
2018-04-02T08:26:52.039Z,17.30
2018-04-02T08:29:19.564Z,17.30
2018-04-02T08:31:47.224Z,17.10
2018-04-02T08:34:14.806Z,16.90
2018-04-02T08:36:42.355Z,16.50
2018-04-02T08:39:09.895Z,16.00
2018-04-02T08:41:38.178Z,14.70
2018-04-02T08:44:05.727Z,14.60
2018-04-02T08:46:34.011Z,14.30
2018-04-02T08:49:01.550Z,14.20
2018-04-02T08:51:29.840Z,14.90
2018-04-02T08:53:58.145Z,15.00
2018-04-02T08:56:25.676Z,15.00
2018-04-02T08:58:53.977Z,14.70
2018-04-02T09:01:21.502Z,14.70
2018-04-02T09:03:49.036Z,15.30
2018-04-02T09:06:16.553Z,15.30
2018-04-02T09:08:44.138Z,15.80
2018-04-02T09:11:11.698Z,15.90
2018-04-02T09:13:39.217Z,15.60
2018-04-02T09:16:07.535Z,15.70
2018-04-02T09:18:35.055Z,15.70
2018-04-02T09:21:03.352Z,15.70
2018-04-02T09:23:30.877Z,15.60
2018-04-02T09:25:59.177Z,14.90
2018-04-02T09:28:27.466Z,14.50
2018-04-02T09:30:55.002Z,14.50
2018-04-02T09:33:22.521Z,13.90
2018-04-02T09:35:50.056Z,13.50
2018-04-02T09:38:17.574Z,13.20
2018-04-02T09:40:45.108Z,13.10
2018-04-02T09:43:12.637Z,12.90
2018-04-02T09:45:40.180Z,13.00
2018-04-02T09:48:08.486Z,13.50
2018-04-02T09:50:36.033Z,13.50
2018-04-02T09:53:03.550Z,13.30
2018-04-02T09:55:31.176Z,13.40
2018-04-02T09:57:58.734Z,13.50
2018-04-02T10:00:32.139Z,13.80
2018-04-02T10:03:00.131Z,13.30
2018-04-02T10:05:27.649Z,12.50
2018-04-02T10:07:55.197Z,11.80
2018-04-02T10:10:23.496Z,12.00
2018-04-02T10:12:51.062Z,12.00
2018-04-02T10:15:18.586Z,13.30
2018-04-02T10:17:46.903Z,15.30
2018-04-02T10:20:14.413Z,15.30
2018-04-02T10:22:41.973Z,15.50
2018-04-02T10:25:09.485Z,15.60
2018-04-02T10:27:37.025Z,15.40
2018-04-02T10:30:04.547Z,15.40
2018-04-02T10:32:32.087Z,14.70
2018-04-02T10:34:59.618Z,14.10
2018-04-02T10:37:27.161Z,13.50
2018-04-02T10:39:55.455Z,12.90
2018-04-02T10:42:23.045Z,12.90
2018-04-02T10:44:50.541Z,13.50
2018-04-02T10:47:18.058Z,13.70
2018-04-02T10:49:45.603Z,13.50
2018-04-02T10:52:13.120Z,14.00
2018-04-02T10:54:40.732Z,14.60
2018-04-02T10:57:08.253Z,15.20
2018-04-02T10:59:36.589Z,15.10
2018-04-02T11:02:04.126Z,15.00
2018-04-02T11:04:31.661Z,14.50
2018-04-02T11:06:59.254Z,14.00
2018-04-02T11:09:26.790Z,13.60
2018-04-02T11:11:54.317Z,13.10
2018-04-02T11:14:21.860Z,12.80
2018-04-02T11:16:49.373Z,12.60
2018-04-02T11:19:16.908Z,12.60
2018-04-02T11:21:45.197Z,13.10
2018-04-02T11:24:13.497Z,13.20
2018-04-02T11:26:41.073Z,13.20
2018-04-02T11:29:08.617Z,13.30
2018-04-02T11:31:36.131Z,13.70
2018-04-02T11:34:03.670Z,14.60
2018-04-02T11:36:31.181Z,15.00
2018-04-02T11:38:59.590Z,15.60
2018-04-02T11:41:27.103Z,15.60
2018-04-02T11:43:54.626Z,16.00
2018-04-02T11:46:22.176Z,15.90
2018-04-02T11:48:49.694Z,15.70
2018-04-02T11:51:17.993Z,15.10
2018-04-02T11:53:45.509Z,15.10
2018-04-02T11:56:13.041Z,15.20
2018-04-02T11:58:40.561Z,15.50
2018-04-02T12:01:08.866Z,16.30
2018-04-02T12:03:36.381Z,16.30
2018-04-02T12:06:03.918Z,16.00
2018-04-02T12:08:31.437Z,16.00
2018-04-02T12:10:58.965Z,16.00
2018-04-02T12:13:27.995Z,15.50
2018-04-02T12:15:55.538Z,15.50
2018-04-02T12:18:23.825Z,15.80
2018-04-02T12:20:51.426Z,15.80
2018-04-02T12:23:19.665Z,15.90
2018-04-02T12:25:47.245Z,15.80
2018-04-02T12:28:14.761Z,15.90
2018-04-02T12:30:42.370Z,16.00
2018-04-02T12:33:09.944Z,16.10
2018-04-02T12:35:37.477Z,15.90
2018-04-02T12:38:05.057Z,15.50
2018-04-02T12:40:32.594Z,15.20
2018-04-02T12:43:00.141Z,15.00
2018-04-02T12:45:27.738Z,14.80
2018-04-02T12:47:55.299Z,15.10
2018-04-02T12:50:22.808Z,15.00
2018-04-02T12:52:50.426Z,14.90
2018-04-02T12:55:17.934Z,14.70
2018-04-02T12:57:45.542Z,14.40
2018-04-02T13:00:13.052Z,14.40
2018-04-02T13:02:42.089Z,14.60
2018-04-02T13:05:09.663Z,14.60
2018-04-02T13:07:37.194Z,14.80
2018-04-02T13:10:05.472Z,15.10
2018-04-02T13:12:33.873Z,14.90
2018-04-02T13:15:01.392Z,14.90
2018-04-02T13:17:29.004Z,14.40
2018-04-02T13:19:56.526Z,14.00
2018-04-02T13:22:24.831Z,13.70
2018-04-02T13:24:52.349Z,13.70
2018-04-02T13:27:19.962Z,13.50
2018-04-02T13:29:47.482Z,13.30
2018-04-02T13:32:15.760Z,13.60
2018-04-02T13:34:44.053Z,14.10
2018-04-02T13:37:12.334Z,14.40
2018-04-02T13:39:40.644Z,14.60
2018-04-02T13:42:08.157Z,14.60
2018-04-02T13:44:36.474Z,14.40
2018-04-02T13:47:03.985Z,14.40
2018-04-02T13:49:32.317Z,14.40
2018-04-02T13:51:59.831Z,14.40
2018-04-02T13:54:28.361Z,14.50
2018-04-02T13:56:55.877Z,14.50
2018-04-02T13:59:24.829Z,14.60
2018-04-02T14:01:52.380Z,14.60
2018-04-02T14:04:19.917Z,14.40
2018-04-02T14:06:47.425Z,14.20
2018-04-02T14:09:14.958Z,14.00
2018-04-02T14:11:42.478Z,13.80
2018-04-02T14:14:10.779Z,13.90
2018-04-02T14:16:38.299Z,13.90
2018-04-02T14:19:05.841Z,14.10
2018-04-02T14:21:33.366Z,14.10
2018-04-02T14:24:00.885Z,14.20
2018-04-02T14:26:28.425Z,14.10
2018-04-02T14:28:55.942Z,14.00
2018-04-02T14:31:23.473Z,13.80
2018-04-02T14:33:50.990Z,13.70
2018-04-02T14:36:18.521Z,13.70
2018-04-02T14:38:46.034Z,13.60
2018-04-02T14:41:13.581Z,13.60
2018-04-02T14:43:41.102Z,13.60
2018-04-02T14:46:08.641Z,13.50
2018-04-02T14:48:36.149Z,13.50
2018-04-02T14:51:03.711Z,13.50
2018-04-02T14:53:31.238Z,13.40
2018-04-02T14:55:59.537Z,13.40
2018-04-02T14:58:27.045Z,13.30
2018-04-02T15:00:54.581Z,13.40
2018-04-02T15:03:22.121Z,13.30
2018-04-02T15:05:49.653Z,13.20
2018-04-02T15:08:17.962Z,13.10
2018-04-02T15:10:45.480Z,13.10
2018-04-02T15:13:13.799Z,13.20
2018-04-02T15:15:41.305Z,13.20
2018-04-02T15:18:08.888Z,13.30
2018-04-02T15:20:37.202Z,13.30
2018-04-02T15:23:04.766Z,13.30
2018-04-02T15:25:32.290Z,13.40
2018-04-02T15:28:00.594Z,13.50
2018-04-02T15:30:28.106Z,13.40
2018-04-02T15:32:55.669Z,13.50
2018-04-02T15:35:23.190Z,13.40
2018-04-02T15:37:50.721Z,13.40
2018-04-02T15:40:18.251Z,13.50
2018-04-02T15:42:46.702Z,13.40
2018-04-02T15:45:14.215Z,13.30
2018-04-02T15:47:42.513Z,13.50
2018-04-02T15:50:10.052Z,13.40
2018-04-02T15:52:38.353Z,13.30
2018-04-02T15:55:05.879Z,13.30
2018-04-02T15:57:33.396Z,13.40
2018-04-02T16:00:00.948Z,13.30
2018-04-02T16:02:28.613Z,13.30
2018-04-02T16:04:56.150Z,13.40
2018-04-02T16:07:24.425Z,13.30
2018-04-02T16:09:52.829Z,13.20
2018-04-02T16:12:20.341Z,13.20
2018-04-02T16:14:47.882Z,13.20
2018-04-02T16:17:15.393Z,13.10
2018-04-02T16:19:42.927Z,13.10
2018-04-02T16:22:10.441Z,13.10
2018-04-02T16:24:38.001Z,13.10
2018-04-02T16:27:05.551Z,13.10
2018-04-02T16:29:33.122Z,13.00
2018-04-02T16:32:00.653Z,13.00
2018-04-02T16:34:28.960Z,12.90
2018-04-02T16:36:56.476Z,12.90
2018-04-02T16:39:24.014Z,12.90
2018-04-02T16:41:51.644Z,13.00
2018-04-02T16:44:19.178Z,12.90
2018-04-02T16:46:47.453Z,12.80
2018-04-02T16:49:15.862Z,12.80
2018-04-02T16:51:43.378Z,12.70
2018-04-02T16:54:10.893Z,12.70
2018-04-02T16:56:38.431Z,12.70
2018-04-02T16:59:05.950Z,12.60
2018-04-02T17:01:34.985Z,12.50
2018-04-02T17:04:02.505Z,12.50
2018-04-02T17:09:10.178Z,12.40
2018-04-02T17:11:37.716Z,12.30
2018-04-02T17:14:05.235Z,12.20
2018-04-02T17:16:32.774Z,12.10
2018-04-02T17:19:00.302Z,12.00
2018-04-02T17:21:27.845Z,11.80
2018-04-02T17:23:56.132Z,11.50
2018-04-02T17:26:24.533Z,11.30
2018-04-02T17:28:52.097Z,11.30
2018-04-02T17:31:19.635Z,11.10
2018-04-02T17:33:47.221Z,10.90
2018-04-02T17:36:14.759Z,10.70
2018-04-02T17:38:42.299Z,10.60
2018-04-02T17:41:10.615Z,10.50
2018-04-02T17:43:38.129Z,10.50
2018-04-02T17:46:05.734Z,10.40
2018-04-02T17:48:33.259Z,10.40
2018-04-02T17:51:01.566Z,10.20
2018-04-02T17:53:29.082Z,10.20
2018-04-02T17:55:58.179Z,10.00
2018-04-02T17:58:25.657Z,10.00
2018-04-02T18:00:53.934Z,9.90
2018-04-02T18:03:22.230Z,9.80
2018-04-02T18:05:49.737Z,9.80
2018-04-02T18:08:17.271Z,9.70
2018-04-02T18:10:44.784Z,9.70
2018-04-02T18:13:12.398Z,9.70
2018-04-02T18:15:39.920Z,9.60
2018-04-02T18:18:07.455Z,9.60
2018-04-02T18:20:34.965Z,9.50
2018-04-02T18:23:02.489Z,9.40
2018-04-02T18:25:31.505Z,9.20
2018-04-02T18:27:59.813Z,9.20
2018-04-02T18:30:27.325Z,9.10
2018-04-02T18:32:54.929Z,9.20
2018-04-02T18:35:22.441Z,9.20
2018-04-02T18:37:50.053Z,9.20
2018-04-02T18:40:17.622Z,9.20
2018-04-02T18:42:45.152Z,9.20
2018-04-02T18:45:13.464Z,9.10
2018-04-02T18:47:41.047Z,9.00
2018-04-02T18:50:08.526Z,9.00
2018-04-02T18:52:36.034Z,9.10
2018-04-02T18:55:03.566Z,9.00
2018-04-02T18:57:31.838Z,9.00
2018-04-02T19:00:00.144Z,9.00
2018-04-02T19:02:27.657Z,9.00
2018-04-02T19:04:55.283Z,9.00
2018-04-02T19:07:22.846Z,9.10
2018-04-02T19:09:50.406Z,9.10
2018-04-02T19:12:17.914Z,9.10
2018-04-02T19:14:46.215Z,9.10
2018-04-02T19:17:14.489Z,8.90
2018-04-02T19:19:42.807Z,8.80
2018-04-02T19:22:10.314Z,8.80
2018-04-02T19:24:37.938Z,8.80
2018-04-02T19:27:05.446Z,8.80
2018-04-02T19:29:33.053Z,8.80
2018-04-02T19:32:00.610Z,8.70
2018-04-02T19:34:28.122Z,8.80
2018-04-02T19:36:55.660Z,8.70
2018-04-02T19:39:23.165Z,8.70
2018-04-02T19:41:51.465Z,8.60
2018-04-02T19:44:19.033Z,8.60
2018-04-02T19:46:46.594Z,8.50
2018-04-02T19:49:14.110Z,8.50
2018-04-02T19:51:41.642Z,8.40
2018-04-02T19:54:09.149Z,8.40
2018-04-02T19:56:37.446Z,8.20
2018-04-02T19:59:04.993Z,8.10
2018-04-02T20:01:33.299Z,8.00
2018-04-02T20:04:00.805Z,8.00
2018-04-02T20:06:28.337Z,8.00
2018-04-02T20:08:55.849Z,8.00
2018-04-02T20:11:24.163Z,8.10
2018-04-02T20:13:51.697Z,8.10
2018-04-02T20:16:19.988Z,8.20
2018-04-02T20:18:47.494Z,8.20
2018-04-02T20:21:15.117Z,8.20
2018-04-02T20:23:42.630Z,8.20
2018-04-02T20:26:10.182Z,8.20
2018-04-02T20:28:37.698Z,8.20
2018-04-02T20:31:05.210Z,8.20
2018-04-02T20:33:32.738Z,8.20
2018-04-02T20:36:00.257Z,8.20
2018-04-02T20:38:27.798Z,8.30
2018-04-02T20:40:55.305Z,8.40
2018-04-02T20:43:22.830Z,8.30
2018-04-02T20:45:51.109Z,8.20
2018-04-02T20:48:19.401Z,8.20
2018-04-02T20:50:46.922Z,8.20
2018-04-02T20:53:14.451Z,8.20
2018-04-02T20:55:41.966Z,8.20
2018-04-02T20:58:10.272Z,8.20
2018-04-02T21:00:37.788Z,8.20
2018-04-02T21:03:05.320Z,8.20
2018-04-02T21:05:32.865Z,8.20
2018-04-02T21:08:00.399Z,8.20
2018-04-02T21:10:28.709Z,8.30
2018-04-02T21:12:56.241Z,8.20
2018-04-02T21:15:24.513Z,8.20
2018-04-02T21:17:52.801Z,8.20
2018-04-02T21:20:20.317Z,8.10
2018-04-02T21:22:47.866Z,8.10
2018-04-02T21:25:15.394Z,8.10
2018-04-02T21:27:42.910Z,8.10
2018-04-02T21:30:11.214Z,8.20
2018-04-02T21:32:38.743Z,8.20
2018-04-02T21:35:06.278Z,8.20
2018-04-02T21:37:33.806Z,8.20
2018-04-02T21:40:01.386Z,8.20
2018-04-02T21:42:28.900Z,8.20
2018-04-02T21:44:57.211Z,8.10
2018-04-02T21:47:24.723Z,8.00
2018-04-02T21:49:52.345Z,8.10
2018-04-02T21:52:19.869Z,8.10
2018-04-02T21:54:48.169Z,8.00
2018-04-02T21:57:15.686Z,8.00
2018-04-02T21:59:43.217Z,8.00
2018-04-02T22:02:10.735Z,8.00
2018-04-02T22:04:39.031Z,8.00
2018-04-02T22:07:06.541Z,7.90
2018-04-02T22:09:34.074Z,8.00
2018-04-02T22:12:01.580Z,8.00
2018-04-02T22:14:29.886Z,8.00
2018-04-02T22:16:57.505Z,8.00
2018-04-02T22:19:25.013Z,8.00
2018-04-02T22:21:52.533Z,7.90
2018-04-02T22:24:20.046Z,8.00
2018-04-02T22:26:47.573Z,7.90
2018-04-02T22:29:15.881Z,7.80
2018-04-02T22:31:43.413Z,7.80
2018-04-02T22:34:11.695Z,7.80
2018-04-02T22:36:39.994Z,7.80
2018-04-02T22:39:07.527Z,7.70
2018-04-02T22:41:35.824Z,7.80
2018-04-02T22:44:03.402Z,7.70
2018-04-02T22:46:30.946Z,7.80
2018-04-02T22:48:58.461Z,7.80
2018-04-02T22:51:25.997Z,7.80
2018-04-02T22:53:53.511Z,7.80
2018-04-02T22:56:21.809Z,7.70
2018-04-02T22:58:49.330Z,7.70
2018-04-02T23:01:16.862Z,7.60
2018-04-02T23:03:44.367Z,7.60
2018-04-02T23:06:12.670Z,7.60
2018-04-02T23:08:40.256Z,7.60
2018-04-02T23:11:07.805Z,7.60
2018-04-02T23:13:35.337Z,7.60
2018-04-02T23:16:03.614Z,7.70
2018-04-02T23:18:31.930Z,7.70
2018-04-02T23:20:59.439Z,7.70
2018-04-02T23:23:27.760Z,7.80
2018-04-02T23:25:55.276Z,7.80
2018-04-02T23:28:22.810Z,7.70
2018-04-02T23:30:50.341Z,7.70
2018-04-02T23:33:17.877Z,7.70
2018-04-02T23:35:46.180Z,7.70
2018-04-02T23:38:13.747Z,7.70
2018-04-02T23:40:41.267Z,7.70
2018-04-02T23:43:09.574Z,7.70
2018-04-02T23:45:37.094Z,7.70
2018-04-02T23:48:04.701Z,7.70
2018-04-02T23:50:32.217Z,7.70
2018-04-02T23:53:00.514Z,7.70
2018-04-02T23:55:28.830Z,7.70
2018-04-02T23:57:56.391Z,7.70
